Time;durP1;ratioP1;P1;durP2;ratioP2;P2;SDS_P1;SDS_P2;PMS_P1;PMS_P2;Temp;Humidity;BMP_temperature;BMP_pressure;BME280_temperature;BME280_humidity;BME280_pressure;Samples;Min_cycle;Max_cycle;Signal;HPM_P1;HPM_P2
2023/06/13 00:00:59;;;;;;;;;;;22.40;91.80;;;;;;5096543;28;20351;-45
2023/06/13 00:03:26;;;;;;;;;;;22.40;91.90;;;;;;5096744;28;19919;-48
2023/06/13 00:05:54;;;;;;;;;;;22.40;92.00;;;;;;5096724;28;19912;-52
2023/06/13 00:08:21;;;;;;;;;;;22.40;92.00;;;;;;5096405;28;19962;-47
2023/06/13 00:10:47;;;;;;;;;;;22.30;91.90;;;;;;5096563;28;19953;-50
2023/06/13 00:13:16;;;;;;;;;;;22.30;92.00;;;;;;5096539;28;20320;-49
2023/06/13 00:15:51;;;;;;;;;;;22.30;91.80;;;;;;5096565;28;19912;-50
2023/06/13 00:18:19;;;;;;;;;;;22.30;92.00;;;;;;5096540;28;19999;-46
2023/06/13 00:20:45;;;;;;;;;;;22.30;92.00;;;;;;5096453;28;20082;-48
2023/06/13 00:23:12;;;;;;;;;;;22.30;92.00;;;;;;5096416;28;19915;-46
2023/06/13 00:25:37;;;;;;;;;;;22.30;92.00;;;;;;5096301;28;20397;-45
2023/06/13 00:28:03;;;;;;;;;;;22.30;92.00;;;;;;5096658;28;20006;-50
2023/06/13 00:30:29;;;;;;;;;;;22.30;91.90;;;;;;5096411;28;19969;-46
2023/06/13 00:32:54;;;;;;;;;;;22.30;92.00;;;;;;5078037;28;19919;-45
2023/06/13 00:35:20;;;;;;;;;;;22.30;92.00;;;;;;5096132;28;19913;-45
2023/06/13 00:37:54;;;;;;;;;;;22.30;92.00;;;;;;5096429;28;19912;-47
2023/06/13 00:40:25;;;;;;;;;;;22.30;92.10;;;;;;5096096;28;19919;-45
2023/06/13 00:42:52;;;;;;;;;;;22.30;91.80;;;;;;5096044;28;19909;-45
2023/06/13 00:45:24;;;;;;;;;;;22.30;91.80;;;;;;5096132;28;20400;-46
2023/06/13 00:47:55;;;;;;;;;;;22.30;91.90;;;;;;5095540;28;19931;-45
2023/06/13 00:50:21;;;;;;;;;;;22.30;92.10;;;;;;5095864;28;19908;-44
2023/06/13 00:52:47;;;;;;;;;;;22.30;92.00;;;;;;5095770;28;19908;-47
2023/06/13 00:55:14;;;;;;;;;;;22.30;92.20;;;;;;5095690;28;19919;-47
2023/06/13 00:57:40;;;;;;;;;;;22.30;92.00;;;;;;5077590;28;19919;-44
2023/06/13 01:00:05;;;;;;;;;;;22.30;91.80;;;;;;5095965;28;19999;-49
2023/06/13 01:02:33;;;;;;;;;;;22.30;91.90;;;;;;5095699;28;19962;-46
2023/06/13 01:05:02;;;;;;;;;;;22.30;91.70;;;;;;5095624;28;19908;-45
2023/06/13 01:07:29;;;;;;;;;;;22.30;91.70;;;;;;5095581;28;19977;-45
2023/06/13 01:09:56;;;;;;;;;;;22.20;91.60;;;;;;5095873;28;19912;-50
2023/06/13 01:12:28;;;;;;;;;;;22.20;91.80;;;;;;5095570;28;19940;-49
2023/06/13 01:15:08;;;;;;;;;;;22.20;91.80;;;;;;5095149;28;19912;-45
2023/06/13 01:17:41;;;;;;;;;;;22.20;92.00;;;;;;5095474;28;19912;-45
2023/06/13 01:20:13;;;;;;;;;;;22.20;91.90;;;;;;5095131;28;20371;-45
2023/06/13 01:22:52;;;;;;;;;;;22.20;92.00;;;;;;5095415;28;19911;-46
2023/06/13 01:25:24;;;;;;;;;;;22.20;91.90;;;;;;5095068;28;19908;-50
2023/06/13 01:27:53;;;;;;;;;;;22.20;91.60;;;;;;5095566;28;19908;-47
2023/06/13 01:30:19;;;;;;;;;;;22.20;91.70;;;;;;5095157;28;19915;-47
2023/06/13 01:32:46;;;;;;;;;;;22.20;91.90;;;;;;5095091;28;19919;-47
2023/06/13 01:35:12;;;;;;;;;;;22.30;92.10;;;;;;5094719;28;19920;-46
2023/06/13 01:37:38;;;;;;;;;;;22.20;92.00;;;;;;5094689;28;20054;-49
2023/06/13 01:40:04;;;;;;;;;;;22.20;91.70;;;;;;5094258;28;19958;-45
2023/06/13 01:42:29;;;;;;;;;;;22.20;91.90;;;;;;5094694;28;20256;-50
2023/06/13 01:44:55;;;;;;;;;;;22.20;91.70;;;;;;5094921;28;20363;-47
2023/06/13 01:47:22;;;;;;;;;;;22.20;92.00;;;;;;5095020;28;19927;-45
2023/06/13 01:50:00;;;;;;;;;;;22.20;91.70;;;;;;5094775;28;19908;-49
2023/06/13 01:52:25;;;;;;;;;;;22.20;92.20;;;;;;5095067;28;20030;-47
2023/06/13 01:54:53;;;;;;;;;;;22.20;91.50;;;;;;5094682;28;19947;-46
2023/06/13 01:57:22;;;;;;;;;;;22.20;92.10;;;;;;5094694;28;19999;-50
2023/06/13 01:59:52;;;;;;;;;;;22.20;92.00;;;;;;5094687;28;19908;-48
2023/06/13 02:02:18;;;;;;;;;;;22.20;91.90;;;;;;5094658;28;19909;-46
2023/06/13 02:04:43;;;;;;;;;;;22.20;91.90;;;;;;5094622;28;19969;-45
2023/06/13 02:07:10;;;;;;;;;;;22.20;92.10;;;;;;5094364;28;20357;-50
2023/06/13 02:09:36;;;;;;;;;;;22.20;92.20;;;;;;5094554;28;19999;-46
2023/06/13 02:12:01;;;;;;;;;;;22.20;92.20;;;;;;5094249;28;19958;-45
2023/06/13 02:14:27;;;;;;;;;;;22.20;91.50;;;;;;5094416;28;19912;-45
2023/06/13 02:16:53;;;;;;;;;;;22.20;92.00;;;;;;5094476;28;19912;-46
2023/06/13 02:19:18;;;;;;;;;;;22.20;92.10;;;;;;5094430;28;19908;-44
2023/06/13 02:21:48;;;;;;;;;;;22.20;92.00;;;;;;5094960;28;19951;-47
2023/06/13 02:24:14;;;;;;;;;;;22.20;92.00;;;;;;5094391;28;19908;-45
2023/06/13 02:26:40;;;;;;;;;;;22.20;91.70;;;;;;5094284;28;19912;-45
2023/06/13 02:29:07;;;;;;;;;;;22.20;91.70;;;;;;5093974;28;20476;-48
2023/06/13 02:31:35;;;;;;;;;;;22.10;91.60;;;;;;5094302;28;19950;-46
2023/06/13 02:34:01;;;;;;;;;;;22.10;92.30;;;;;;5094130;28;19965;-48
2023/06/13 02:36:26;;;;;;;;;;;22.20;92.40;;;;;;5093925;28;19912;-49
2023/06/13 02:38:52;;;;;;;;;;;22.20;92.50;;;;;;5093875;28;19908;-46
2023/06/13 02:41:17;;;;;;;;;;;22.10;92.10;;;;;;5094141;28;20418;-46
2023/06/13 02:43:43;;;;;;;;;;;22.10;92.50;;;;;;5094183;28;19908;-50
2023/06/13 02:46:08;;;;;;;;;;;22.20;92.50;;;;;;5093828;28;19995;-48
2023/06/13 02:48:34;;;;;;;;;;;22.10;92.40;;;;;;5094165;28;19920;-47
2023/06/13 02:51:00;;;;;;;;;;;22.20;92.70;;;;;;5094050;28;19939;-45
2023/06/13 02:53:25;;;;;;;;;;;22.10;92.40;;;;;;5095231;28;19912;-45
2023/06/13 02:55:52;;;;;;;;;;;22.10;92.60;;;;;;5098213;28;19919;-48
2023/06/13 02:58:19;;;;;;;;;;;22.10;92.40;;;;;;5097987;28;19915;-47
2023/06/13 03:00:45;;;;;;;;;;;22.10;92.50;;;;;;5098071;28;20397;-44
2023/06/13 03:03:10;;;;;;;;;;;22.10;92.20;;;;;;5097735;28;20003;-49
2023/06/13 03:05:36;;;;;;;;;;;22.10;92.60;;;;;;5097644;28;19944;-50
2023/06/13 03:08:04;;;;;;;;;;;22.10;92.50;;;;;;5097776;28;19908;-45
2023/06/13 03:10:29;;;;;;;;;;;22.10;92.70;;;;;;5099272;28;19931;-48
2023/06/13 03:12:55;;;;;;;;;;;22.10;92.50;;;;;;5097777;28;20350;-47
2023/06/13 03:15:20;;;;;;;;;;;22.10;92.80;;;;;;5097648;28;20347;-45
2023/06/13 03:17:46;;;;;;;;;;;22.10;92.70;;;;;;5096333;28;20423;-49
2023/06/13 03:20:11;;;;;;;;;;;22.10;92.60;;;;;;5110482;28;19912;-44
2023/06/13 03:22:37;;;;;;;;;;;22.10;92.30;;;;;;5115966;28;20022;-49
2023/06/13 03:25:04;;;;;;;;;;;22.10;92.50;;;;;;5116874;28;19953;-47
2023/06/13 03:27:30;;;;;;;;;;;22.20;91.80;;;;;;5115560;28;20383;-45
2023/06/13 03:29:55;;;;;;;;;;;22.10;90.80;;;;;;5117571;28;20006;-48
2023/06/13 03:32:21;;;;;;;;;;;22.10;90.40;;;;;;5098413;28;19951;-45
2023/06/13 03:34:47;;;;;;;;;;;22.10;90.10;;;;;;5117259;28;19911;-48
2023/06/13 03:37:13;;;;;;;;;;;22.00;89.50;;;;;;5099560;28;19920;-49
2023/06/13 03:39:38;;;;;;;;;;;22.10;89.20;;;;;;5112003;28;19956;-46
2023/06/13 03:42:04;;;;;;;;;;;22.10;89.10;;;;;;5111810;28;19919;-45
2023/06/13 03:44:29;;;;;;;;;;;22.10;90.20;;;;;;5111924;28;19912;-47
2023/06/13 03:46:55;;;;;;;;;;;22.10;90.00;;;;;;5095916;28;19924;-44
2023/06/13 03:49:24;;;;;;;;;;;22.20;89.40;;;;;;5096176;28;19919;-45
2023/06/13 03:51:50;;;;;;;;;;;22.20;87.60;;;;;;5095949;28;19908;-45
2023/06/13 03:54:16;;;;;;;;;;;22.20;88.40;;;;;;5105076;28;19938;-44
2023/06/13 03:56:41;;;;;;;;;;;22.20;86.10;;;;;;5095952;28;20264;-45
2023/06/13 03:59:07;;;;;;;;;;;22.20;87.80;;;;;;5117182;28;19914;-42
2023/06/13 04:01:32;;;;;;;;;;;22.30;88.30;;;;;;5105186;28;20434;-41
2023/06/13 04:03:58;;;;;;;;;;;22.30;88.70;;;;;;5096331;28;19908;-45
2023/06/13 04:06:23;;;;;;;;;;;22.30;88.40;;;;;;5096732;28;19994;-44
2023/06/13 04:08:49;;;;;;;;;;;22.30;87.50;;;;;;5095419;28;19912;-44
2023/06/13 04:11:14;;;;;;;;;;;22.30;87.50;;;;;;5105659;28;20370;-45
2023/06/13 04:13:41;;;;;;;;;;;22.30;87.50;;;;;;5104955;28;19927;-44
2023/06/13 04:16:06;;;;;;;;;;;22.30;88.30;;;;;;5101499;28;20350;-46
2023/06/13 04:18:36;;;;;;;;;;;22.30;88.70;;;;;;5116514;28;19908;-44
2023/06/13 04:21:06;;;;;;;;;;;22.40;89.00;;;;;;5116930;28;19908;-45
2023/06/13 04:23:32;;;;;;;;;;;22.40;88.40;;;;;;5116766;28;19912;-43
2023/06/13 04:26:02;;;;;;;;;;;22.40;88.60;;;;;;5117081;28;20361;-44
2023/06/13 04:28:29;;;;;;;;;;;22.40;88.20;;;;;;5116716;28;19915;-43
2023/06/13 04:30:56;;;;;;;;;;;22.40;88.50;;;;;;5116555;28;19994;-47
2023/06/13 04:33:23;;;;;;;;;;;22.40;88.90;;;;;;5116433;28;19914;-45
2023/06/13 04:35:49;;;;;;;;;;;22.40;89.40;;;;;;5116450;28;19919;-44
2023/06/13 04:38:16;;;;;;;;;;;22.40;88.70;;;;;;5116534;28;19918;-45
2023/06/13 04:40:41;;;;;;;;;;;22.40;88.80;;;;;;5116465;28;19907;-46
2023/06/13 04:43:09;;;;;;;;;;;22.40;88.70;;;;;;5116370;28;20323;-43
2023/06/13 04:45:35;;;;;;;;;;;22.40;88.60;;;;;;5116338;28;20011;-45
2023/06/13 04:48:04;;;;;;;;;;;22.50;89.20;;;;;;5116217;28;19926;-43
2023/06/13 04:50:31;;;;;;;;;;;22.40;89.40;;;;;;5116268;28;19908;-46
2023/06/13 04:52:57;;;;;;;;;;;22.40;88.30;;;;;;5116205;28;20329;-45
2023/06/13 04:55:23;;;;;;;;;;;22.40;88.30;;;;;;5116052;28;19912;-46
2023/06/13 04:57:48;;;;;;;;;;;22.40;88.20;;;;;;5115594;28;20431;-44
2023/06/13 05:00:15;;;;;;;;;;;22.40;88.70;;;;;;5115669;28;19987;-48
2023/06/13 05:02:42;;;;;;;;;;;22.40;88.60;;;;;;5115871;28;19951;-47
2023/06/13 05:05:08;;;;;;;;;;;22.40;88.90;;;;;;5115681;28;19907;-47
2023/06/13 05:07:34;;;;;;;;;;;22.40;88.90;;;;;;5115872;28;19908;-43
2023/06/13 05:10:03;;;;;;;;;;;22.50;88.60;;;;;;5115794;28;19961;-45
2023/06/13 05:12:28;;;;;;;;;;;22.40;89.10;;;;;;5115374;28;20399;-43
2023/06/13 05:14:54;;;;;;;;;;;22.50;89.40;;;;;;5114788;28;19916;-44
2023/06/13 05:17:20;;;;;;;;;;;22.50;89.60;;;;;;5097106;28;19912;-44
2023/06/13 05:19:46;;;;;;;;;;;22.50;89.60;;;;;;5115634;28;19995;-45
2023/06/13 05:22:12;;;;;;;;;;;22.50;89.50;;;;;;5115420;28;19909;-44
2023/06/13 05:24:37;;;;;;;;;;;22.50;89.50;;;;;;5115052;28;19915;-43
2023/06/13 05:27:03;;;;;;;;;;;22.50;88.40;;;;;;5115397;28;19914;-44
2023/06/13 05:29:30;;;;;;;;;;;22.40;89.30;;;;;;5115340;28;19930;-44
2023/06/13 05:31:57;;;;;;;;;;;22.50;89.90;;;;;;5096916;28;19912;-43
2023/06/13 05:34:23;;;;;;;;;;;22.50;89.80;;;;;;5114683;28;19919;-43
2023/06/13 05:36:48;;;;;;;;;;;22.50;89.60;;;;;;5114906;28;19912;-45
2023/06/13 05:39:15;;;;;;;;;;;22.50;89.50;;;;;;5115099;28;19972;-43
2023/06/13 05:41:40;;;;;;;;;;;22.40;88.50;;;;;;5115095;28;19912;-48
2023/06/13 05:44:06;;;;;;;;;;;22.40;88.70;;;;;;5114714;28;19908;-45
2023/06/13 05:46:31;;;;;;;;;;;22.50;89.60;;;;;;5114795;28;19912;-43
2023/06/13 05:48:57;;;;;;;;;;;22.40;89.70;;;;;;5115401;28;20366;-46
2023/06/13 05:51:22;;;;;;;;;;;22.40;88.80;;;;;;5114516;28;19955;-45
2023/06/13 05:53:48;;;;;;;;;;;22.40;89.50;;;;;;5114733;28;20347;-44
2023/06/13 05:56:13;;;;;;;;;;;22.40;88.70;;;;;;5114469;28;20007;-48
2023/06/13 05:58:38;;;;;;;;;;;22.50;89.40;;;;;;5096414;28;19914;-43
2023/06/13 06:01:04;;;;;;;;;;;22.40;88.30;;;;;;5114655;28;19911;-44
2023/06/13 06:03:30;;;;;;;;;;;22.40;88.50;;;;;;5114811;28;20308;-44
2023/06/13 06:05:55;;;;;;;;;;;22.40;88.90;;;;;;5114599;28;19908;-44
2023/06/13 06:08:21;;;;;;;;;;;22.40;88.70;;;;;;5114346;28;19915;-44
2023/06/13 06:10:46;;;;;;;;;;;22.40;88.20;;;;;;5114912;28;19915;-44
2023/06/13 06:13:12;;;;;;;;;;;22.40;87.80;;;;;;5114649;28;20271;-45
2023/06/13 06:15:37;;;;;;;;;;;22.30;87.70;;;;;;5114524;28;20010;-42
2023/06/13 06:18:03;;;;;;;;;;;22.30;88.50;;;;;;5114460;28;19919;-46
2023/06/13 06:20:28;;;;;;;;;;;22.40;89.00;;;;;;5114493;28;19922;-44
2023/06/13 06:22:54;;;;;;;;;;;22.40;88.90;;;;;;5114364;28;20370;-44
2023/06/13 06:25:19;;;;;;;;;;;22.40;88.20;;;;;;5095773;28;19917;-46
2023/06/13 06:27:48;;;;;;;;;;;22.40;88.60;;;;;;5114308;28;19912;-45
2023/06/13 06:30:14;;;;;;;;;;;22.40;88.40;;;;;;5113913;28;19954;-44
2023/06/13 06:32:40;;;;;;;;;;;22.40;88.60;;;;;;5113998;28;19939;-44
2023/06/13 06:35:05;;;;;;;;;;;22.30;88.90;;;;;;5114602;28;19912;-45
2023/06/13 06:37:31;;;;;;;;;;;22.30;89.30;;;;;;5096046;28;20381;-45
2023/06/13 06:39:57;;;;;;;;;;;22.30;88.50;;;;;;5113793;28;19953;-43
2023/06/13 06:42:22;;;;;;;;;;;22.30;88.00;;;;;;5114209;28;19974;-43
2023/06/13 06:44:48;;;;;;;;;;;22.30;87.80;;;;;;5114252;28;19939;-44
2023/06/13 06:47:14;;;;;;;;;;;22.30;88.80;;;;;;5113920;28;19919;-46
2023/06/13 06:49:40;;;;;;;;;;;22.40;89.40;;;;;;5114017;28;19935;-45
2023/06/13 06:52:06;;;;;;;;;;;22.30;89.80;;;;;;5114141;28;19907;-43
2023/06/13 06:54:31;;;;;;;;;;;22.30;88.50;;;;;;5113797;28;20327;-46
2023/06/13 06:56:56;;;;;;;;;;;22.40;88.50;;;;;;5113819;28;19912;-43
2023/06/13 06:59:22;;;;;;;;;;;22.30;88.20;;;;;;5114252;28;19908;-44
2023/06/13 07:01:48;;;;;;;;;;;22.30;87.60;;;;;;5114054;28;19908;-44
2023/06/13 07:04:13;;;;;;;;;;;22.30;88.10;;;;;;5113974;28;19908;-45
2023/06/13 07:06:39;;;;;;;;;;;22.30;89.70;;;;;;5113734;28;20011;-44
2023/06/13 07:09:04;;;;;;;;;;;22.30;89.50;;;;;;5113844;28;20002;-44
2023/06/13 07:11:29;;;;;;;;;;;22.30;87.80;;;;;;5114116;28;19912;-49
2023/06/13 07:13:55;;;;;;;;;;;22.30;88.90;;;;;;5113909;28;20358;-43
2023/06/13 07:16:21;;;;;;;;;;;22.30;87.80;;;;;;5113955;28;19965;-43
2023/06/13 07:18:47;;;;;;;;;;;22.30;88.50;;;;;;5113966;28;20240;-47
2023/06/13 07:21:12;;;;;;;;;;;22.30;88.20;;;;;;5114008;28;20259;-44
2023/06/13 07:23:38;;;;;;;;;;;22.30;88.80;;;;;;5113598;28;19915;-44
2023/06/13 07:26:03;;;;;;;;;;;22.30;87.70;;;;;;5113739;28;20002;-46
2023/06/13 07:28:29;;;;;;;;;;;22.30;87.30;;;;;;5113574;28;19908;-47
2023/06/13 07:30:57;;;;;;;;;;;22.30;89.10;;;;;;5113566;28;19958;-46
2023/06/13 07:33:23;;;;;;;;;;;22.30;89.20;;;;;;5113566;28;19952;-44
2023/06/13 07:35:48;;;;;;;;;;;22.30;87.50;;;;;;5113845;28;19919;-45
2023/06/13 07:38:14;;;;;;;;;;;22.30;87.60;;;;;;5115089;28;19908;-45
2023/06/13 07:40:39;;;;;;;;;;;22.30;88.50;;;;;;5117581;28;19912;-46
2023/06/13 07:43:05;;;;;;;;;;;22.30;89.30;;;;;;5117357;28;20017;-43
2023/06/13 07:45:30;;;;;;;;;;;22.30;89.60;;;;;;5117512;28;20017;-43
2023/06/13 07:47:57;;;;;;;;;;;22.30;87.80;;;;;;5099019;28;20002;-45
2023/06/13 07:50:23;;;;;;;;;;;22.30;87.60;;;;;;5117130;28;19908;-45
2023/06/13 07:52:48;;;;;;;;;;;22.30;87.20;;;;;;5117643;28;19967;-43
2023/06/13 07:55:14;;;;;;;;;;;22.30;88.90;;;;;;5117166;28;19912;-43
2023/06/13 07:57:40;;;;;;;;;;;22.30;88.10;;;;;;5117092;28;19959;-43
2023/06/13 08:00:14;;;;;;;;;;;22.30;87.70;;;;;;5117169;28;19938;-41
2023/06/13 08:02:40;;;;;;;;;;;22.20;87.20;;;;;;5117228;28;19912;-45
2023/06/13 08:05:06;;;;;;;;;;;22.20;88.90;;;;;;5117282;28;19953;-44
2023/06/13 08:07:32;;;;;;;;;;;22.20;88.10;;;;;;5117021;28;20002;-43
2023/06/13 08:09:57;;;;;;;;;;;22.30;88.20;;;;;;5116523;28;19950;-44
2023/06/13 08:12:22;;;;;;;;;;;22.30;88.30;;;;;;5116765;28;19908;-45
2023/06/13 08:14:48;;;;;;;;;;;22.30;88.10;;;;;;5116860;28;19911;-45
2023/06/13 08:17:13;;;;;;;;;;;22.30;87.50;;;;;;5116559;28;20382;-45
2023/06/13 08:19:39;;;;;;;;;;;22.20;87.60;;;;;;5116442;28;19956;-43
2023/06/13 08:22:04;;;;;;;;;;;22.30;87.30;;;;;;5116480;28;19912;-46
2023/06/13 08:24:30;;;;;;;;;;;22.30;87.30;;;;;;5116734;28;20362;-43
2023/06/13 08:26:57;;;;;;;;;;;22.30;87.20;;;;;;5116745;28;19966;-43
2023/06/13 08:29:23;;;;;;;;;;;22.20;86.60;;;;;;5116651;28;19970;-45
2023/06/13 08:31:49;;;;;;;;;;;22.20;86.70;;;;;;5116549;28;19908;-46
2023/06/13 08:34:14;;;;;;;;;;;22.20;86.60;;;;;;5116559;28;19923;-44
2023/06/13 08:36:40;;;;;;;;;;;22.20;86.70;;;;;;5116673;28;20459;-43
2023/06/13 08:39:05;;;;;;;;;;;22.30;88.80;;;;;;5116459;28;20002;-43
2023/06/13 08:41:31;;;;;;;;;;;22.30;88.40;;;;;;5116483;28;19908;-45
2023/06/13 08:43:58;;;;;;;;;;;22.30;88.20;;;;;;5116086;28;19915;-44
2023/06/13 08:46:24;;;;;;;;;;;22.20;87.70;;;;;;5116220;28;19998;-46
2023/06/13 08:48:50;;;;;;;;;;;22.20;86.90;;;;;;5115671;28;19914;-44
2023/06/13 08:51:18;;;;;;;;;;;22.20;86.50;;;;;;5115462;28;19907;-43
2023/06/13 08:53:48;;;;;;;;;;;22.20;86.60;;;;;;5116030;28;19914;-44
2023/06/13 08:56:14;;;;;;;;;;;22.20;86.20;;;;;;5116089;28;19912;-43
2023/06/13 08:58:41;;;;;;;;;;;22.20;87.10;;;;;;5116353;28;19912;-46
2023/06/13 09:01:07;;;;;;;;;;;22.30;86.30;;;;;;5115707;28;19908;-44
2023/06/13 09:03:34;;;;;;;;;;;22.20;87.10;;;;;;5116035;28;19985;-43
2023/06/13 09:06:00;;;;;;;;;;;22.20;85.90;;;;;;5115485;28;19915;-45
2023/06/13 09:08:27;;;;;;;;;;;22.20;86.10;;;;;;5115829;28;19912;-44
2023/06/13 09:10:53;;;;;;;;;;;22.20;87.40;;;;;;5115593;28;20006;-47
2023/06/13 09:13:20;;;;;;;;;;;22.20;87.40;;;;;;5115996;28;19969;-45
2023/06/13 09:15:46;;;;;;;;;;;22.20;87.30;;;;;;5115784;28;20294;-44
2023/06/13 09:18:12;;;;;;;;;;;22.20;87.30;;;;;;5115742;28;19919;-43
2023/06/13 09:20:37;;;;;;;;;;;22.20;86.50;;;;;;5115707;28;19907;-45
2023/06/13 09:23:03;;;;;;;;;;;22.30;86.80;;;;;;5097320;28;20402;-45
2023/06/13 09:25:30;;;;;;;;;;;22.20;86.20;;;;;;5115489;28;19908;-46
2023/06/13 09:27:55;;;;;;;;;;;22.20;86.40;;;;;;5115543;28;19911;-45
2023/06/13 09:30:21;;;;;;;;;;;22.20;86.30;;;;;;5115534;28;19907;-44
2023/06/13 09:32:47;;;;;;;;;;;22.20;85.90;;;;;;5115590;28;20368;-48
2023/06/13 09:35:13;;;;;;;;;;;22.20;85.40;;;;;;5115352;28;20270;-46
2023/06/13 09:37:39;;;;;;;;;;;22.20;86.50;;;;;;5115246;28;19912;-45
2023/06/13 09:40:05;;;;;;;;;;;22.20;86.20;;;;;;5114739;28;19963;-47
2023/06/13 09:42:31;;;;;;;;;;;22.20;86.30;;;;;;5114934;28;19939;-45
2023/06/13 09:44:57;;;;;;;;;;;22.20;86.10;;;;;;5114906;28;20311;-46
2023/06/13 09:47:23;;;;;;;;;;;22.20;86.80;;;;;;5114539;28;19926;-45
2023/06/13 09:49:56;;;;;;;;;;;22.20;86.80;;;;;;5114878;28;19954;-45
2023/06/13 09:52:25;;;;;;;;;;;22.20;86.60;;;;;;5115113;28;19915;-44
2023/06/13 09:54:51;;;;;;;;;;;22.20;86.00;;;;;;5114905;28;19916;-44
2023/06/13 09:57:17;;;;;;;;;;;22.20;85.80;;;;;;5114935;28;19912;-46
2023/06/13 09:59:45;;;;;;;;;;;22.20;85.30;;;;;;5114497;28;19908;-44
2023/06/13 10:02:10;;;;;;;;;;;22.20;86.30;;;;;;5114222;28;19908;-45
2023/06/13 10:04:36;;;;;;;;;;;22.20;85.80;;;;;;5114355;28;19908;-44
2023/06/13 10:07:02;;;;;;;;;;;22.20;85.20;;;;;;5114414;28;19912;-42
2023/06/13 10:09:28;;;;;;;;;;;22.20;85.00;;;;;;5096241;28;19907;-44
2023/06/13 10:11:54;;;;;;;;;;;22.20;85.20;;;;;;5114691;28;20239;-43
2023/06/13 10:14:21;;;;;;;;;;;22.20;85.20;;;;;;5114476;28;19957;-42
2023/06/13 10:16:48;;;;;;;;;;;22.20;85.40;;;;;;5114530;28;20316;-42
2023/06/13 10:19:17;;;;;;;;;;;22.20;85.00;;;;;;5114979;28;19907;-43
2023/06/13 10:21:43;;;;;;;;;;;22.20;84.80;;;;;;5115032;28;19911;-45
2023/06/13 10:24:10;;;;;;;;;;;22.20;85.30;;;;;;5114456;28;19968;-45
2023/06/13 10:26:42;;;;;;;;;;;22.20;86.60;;;;;;5114272;28;20397;-44
2023/06/13 10:29:26;;;;;;;;;;;22.20;85.80;;;;;;5096237;28;19956;-44
2023/06/13 10:32:04;;;;;;;;;;;22.20;85.10;;;;;;5114367;28;19908;-44
2023/06/13 10:34:30;;;;;;;;;;;22.20;86.50;;;;;;5114252;28;19919;-46
2023/06/13 10:37:14;;;;;;;;;;;22.20;86.50;;;;;;5114228;28;20386;-43
2023/06/13 10:39:40;;;;;;;;;;;22.20;85.30;;;;;;5114179;28;19966;-43
2023/06/13 10:42:12;;;;;;;;;;;22.20;84.90;;;;;;5095987;28;20323;-45
2023/06/13 10:44:55;;;;;;;;;;;22.20;85.30;;;;;;5114552;28;19907;-42
2023/06/13 10:47:22;;;;;;;;;;;22.20;85.20;;;;;;5114397;28;19927;-44
2023/06/13 10:49:48;;;;;;;;;;;22.20;85.90;;;;;;5114008;28;20011;-45
2023/06/13 10:52:15;;;;;;;;;;;22.20;86.50;;;;;;5114412;28;19912;-42
2023/06/13 10:54:40;;;;;;;;;;;22.20;85.50;;;;;;5113957;28;19923;-44
2023/06/13 10:57:07;;;;;;;;;;;22.20;85.30;;;;;;5114373;28;19912;-44
2023/06/13 10:59:36;;;;;;;;;;;22.20;84.90;;;;;;5114175;28;19915;-44
2023/06/13 11:02:02;;;;;;;;;;;22.20;84.90;;;;;;5113829;28;20292;-46
2023/06/13 11:04:28;;;;;;;;;;;22.20;85.30;;;;;;5114226;28;19907;-43
2023/06/13 11:07:13;;;;;;;;;;;22.20;84.70;;;;;;5113778;28;19908;-42
2023/06/13 11:09:39;;;;;;;;;;;22.20;84.00;;;;;;5095636;28;19914;-44
2023/06/13 11:12:06;;;;;;;;;;;22.20;84.20;;;;;;5114081;28;20274;-45
2023/06/13 11:14:33;;;;;;;;;;;22.20;84.00;;;;;;5117754;28;20350;-45
2023/06/13 11:16:58;;;;;;;;;;;22.20;84.00;;;;;;5118121;28;20006;-44
2023/06/13 11:19:26;;;;;;;;;;;22.20;84.30;;;;;;5117712;28;20327;-44
2023/06/13 11:22:06;;;;;;;;;;;22.20;84.30;;;;;;5117604;28;19908;-44
2023/06/13 11:24:32;;;;;;;;;;;22.20;84.90;;;;;;5118126;28;19908;-45
2023/06/13 11:27:03;;;;;;;;;;;22.20;84.50;;;;;;5117381;28;19914;-44
2023/06/13 11:29:30;;;;;;;;;;;22.20;84.70;;;;;;5117831;28;19958;-43
2023/06/13 11:31:56;;;;;;;;;;;22.20;84.70;;;;;;5117580;28;20010;-46
2023/06/13 11:34:28;;;;;;;;;;;22.20;84.20;;;;;;5117284;28;20004;-44
2023/06/13 11:36:56;;;;;;;;;;;22.20;84.30;;;;;;5117357;28;19966;-45
2023/06/13 11:39:26;;;;;;;;;;;22.20;85.00;;;;;;5117277;28;19930;-44
2023/06/13 11:41:52;;;;;;;;;;;22.20;84.70;;;;;;5117599;28;19961;-43
2023/06/13 11:44:18;;;;;;;;;;;22.20;84.10;;;;;;5117499;28;19908;-43
2023/06/13 11:46:44;;;;;;;;;;;22.20;84.50;;;;;;5117343;28;19928;-44
2023/06/13 11:49:14;;;;;;;;;;;22.20;84.30;;;;;;5117425;28;19915;-45
2023/06/13 11:51:41;;;;;;;;;;;22.20;83.60;;;;;;5099065;28;19912;-42
2023/06/13 11:54:07;;;;;;;;;;;22.20;83.70;;;;;;5117389;28;20395;-44
2023/06/13 11:56:36;;;;;;;;;;;22.20;84.00;;;;;;5117225;28;19911;-44
2023/06/13 11:59:14;;;;;;;;;;;22.20;83.70;;;;;;5117279;28;19933;-41
2023/06/13 12:01:39;;;;;;;;;;;22.20;83.80;;;;;;5117170;28;20325;-42
2023/06/13 12:04:04;;;;;;;;;;;22.20;84.20;;;;;;5116992;28;19911;-43
2023/06/13 12:06:30;;;;;;;;;;;22.20;84.10;;;;;;5116723;28;20393;-42
2023/06/13 12:08:56;;;;;;;;;;;22.20;83.90;;;;;;5116729;28;19915;-43
2023/06/13 12:11:21;;;;;;;;;;;22.20;84.20;;;;;;5116883;28;19908;-44
2023/06/13 12:13:53;;;;;;;;;;;22.20;84.30;;;;;;5116797;28;19931;-41
2023/06/13 12:16:20;;;;;;;;;;;22.20;84.90;;;;;;5116907;28;19938;-45
2023/06/13 12:18:49;;;;;;;;;;;22.20;85.00;;;;;;5098562;28;20274;-42
2023/06/13 12:21:15;;;;;;;;;;;22.20;84.60;;;;;;5116514;28;19998;-42
2023/06/13 12:23:40;;;;;;;;;;;22.20;84.40;;;;;;5116191;28;19958;-43
2023/06/13 12:26:07;;;;;;;;;;;22.20;84.40;;;;;;5098294;28;19930;-42
2023/06/13 12:28:33;;;;;;;;;;;22.20;84.70;;;;;;5116513;28;20330;-45
2023/06/13 12:31:05;;;;;;;;;;;22.20;84.10;;;;;;5116516;28;19960;-43
2023/06/13 12:33:34;;;;;;;;;;;22.20;84.80;;;;;;5116625;28;19952;-45
2023/06/13 12:36:00;;;;;;;;;;;22.20;84.80;;;;;;5098116;28;19912;-44
2023/06/13 12:38:27;;;;;;;;;;;22.20;84.30;;;;;;5116245;28;19915;-44
2023/06/13 12:40:52;;;;;;;;;;;22.20;84.00;;;;;;5116390;28;20000;-44
2023/06/13 12:43:23;;;;;;;;;;;22.20;84.20;;;;;;5116739;28;20295;-43
2023/06/13 12:45:48;;;;;;;;;;;22.20;84.00;;;;;;5116307;28;20370;-44
2023/06/13 12:48:17;;;;;;;;;;;22.20;83.50;;;;;;5116262;28;19949;-42
2023/06/13 12:50:43;;;;;;;;;;;22.20;83.60;;;;;;5115662;28;19908;-43
2023/06/13 12:53:09;;;;;;;;;;;22.20;83.60;;;;;;5116208;28;20315;-43
2023/06/13 12:55:38;;;;;;;;;;;22.20;83.90;;;;;;5115717;28;20101;-43
2023/06/13 12:58:22;;;;;;;;;;;22.20;83.70;;;;;;5115862;28;20337;-43
2023/06/13 13:00:47;;;;;;;;;;;22.20;84.30;;;;;;5115701;28;19907;-43
2023/06/13 13:03:13;;;;;;;;;;;22.20;83.60;;;;;;5115806;28;20002;-45
2023/06/13 13:05:38;;;;;;;;;;;22.20;83.60;;;;;;5115575;28;19957;-42
2023/06/13 13:08:04;;;;;;;;;;;22.20;83.50;;;;;;5115562;28;19978;-47
2023/06/13 13:10:30;;;;;;;;;;;22.20;83.60;;;;;;5116047;28;19912;-44
2023/06/13 13:12:56;;;;;;;;;;;22.20;83.30;;;;;;5115869;28;19960;-42
2023/06/13 13:15:21;;;;;;;;;;;22.20;83.90;;;;;;5115311;28;19916;-43
2023/06/13 13:17:47;;;;;;;;;;;22.20;83.20;;;;;;5097272;28;20338;-45
2023/06/13 13:20:12;;;;;;;;;;;22.20;83.50;;;;;;5115878;28;19908;-44
2023/06/13 13:22:38;;;;;;;;;;;22.20;84.00;;;;;;5115558;28;19968;-43
2023/06/13 13:25:04;;;;;;;;;;;22.20;84.20;;;;;;5115378;28;20277;-44
2023/06/13 13:27:32;;;;;;;;;;;22.20;83.90;;;;;;5114833;28;19907;-43
2023/06/13 13:29:57;;;;;;;;;;;22.20;84.10;;;;;;5114672;28;19961;-43
2023/06/13 13:32:23;;;;;;;;;;;22.20;84.30;;;;;;5115041;28;19939;-47
2023/06/13 13:34:48;;;;;;;;;;;22.20;84.30;;;;;;5114819;28;20004;-42
2023/06/13 13:37:14;;;;;;;;;;;22.20;83.90;;;;;;5114436;28;19919;-43
2023/06/13 13:39:39;;;;;;;;;;;22.20;84.10;;;;;;5114949;28;20362;-48
2023/06/13 13:42:05;;;;;;;;;;;22.20;84.00;;;;;;5114819;28;20011;-43
2023/06/13 13:44:30;;;;;;;;;;;22.10;83.80;;;;;;5114976;28;19995;-44
2023/06/13 13:46:56;;;;;;;;;;;22.20;83.90;;;;;;5114384;28;19943;-45
2023/06/13 13:49:22;;;;;;;;;;;22.10;83.90;;;;;;5115343;28;19961;-43
2023/06/13 13:51:50;;;;;;;;;;;22.10;83.60;;;;;;5114971;28;19963;-43
2023/06/13 13:54:15;;;;;;;;;;;22.10;83.40;;;;;;5114725;28;19959;-43
2023/06/13 13:56:41;;;;;;;;;;;22.20;83.20;;;;;;5114802;28;19911;-42
2023/06/13 13:59:07;;;;;;;;;;;22.20;83.40;;;;;;5114737;28;19915;-43
2023/06/13 14:01:32;;;;;;;;;;;22.20;83.40;;;;;;5114497;28;19933;-46
2023/06/13 14:03:57;;;;;;;;;;;22.20;82.50;;;;;;5114453;28;19911;-44
2023/06/13 14:06:23;;;;;;;;;;;22.10;82.70;;;;;;5114345;28;19907;-43
2023/06/13 14:08:48;;;;;;;;;;;22.20;83.20;;;;;;5114351;28;19915;-43
2023/06/13 14:11:14;;;;;;;;;;;22.20;83.80;;;;;;5114640;28;19907;-43
2023/06/13 14:13:40;;;;;;;;;;;22.20;82.60;;;;;;5114616;28;19919;-44